Gandhi — A8OK8 — position and weather

sailwx.info

Track history (hours):
 
Tides and Currents Weather Stations Pressure Air Temp Water Temp Dewpoint Dewpoint Depression Visibility Wind Speed Wind Dir Waves Ship Positions

Gandhi

Last reported at 2016-Aug-22 21:24 UTC. Time now 2016-Aug-25 00:57 UTC.
Position N 40°49' E 028°57'.

Length 176 m; draft 6 m.

Type: Tanker. MMSI: 636013645.

Date/timePositionNaut miles runAvg speedWind from/ knotsBaromVisibWave heightAir tempDewpointWater temp
2016-Aug-22 21:24N 40°49' E 028°57'9 9.7
2016-Aug-22 20:29N 40°40' E 028°58'7 1.0
2016-Aug-22 13:13N 40°47' E 028°58'1 0.8
2016-Aug-22 11:25N 40°48' E 028°57'1 0.7
2016-Aug-22 10:25N 40°49' E 028°57'1 0.7
2016-Aug-22 09:19N 40°50' E 028°57'1 1.6
2016-Aug-22 08:32N 40°50' E 028°55'  
2016-Aug-20 04:20N 37°51' E 024°30'1112.9
2016-Aug-20 03:30N 37°44' E 024°20'1313.2
2016-Aug-20 02:31N 37°35' E 024°09'1313.4
2016-Aug-20 01:33N 37°23' E 024°00'1313.0
2016-Aug-20 00:33N 37°12' E 023°52'1312.6
2016-Aug-19 23:33N 37°02' E 023°44'1312.8
2016-Aug-19 22:33N 36°51' E 023°35'1313.3
2016-Aug-19 21:33N 36°39' E 023°27'1312.9
2016-Aug-19 20:33N 36°28' E 023°18'39613.2
2016-Aug-18 14:33N 36°25' E 015°06'1312.9
2016-Aug-18 13:32N 36°25' E 014°49'1313.2
2016-Aug-18 12:34N 36°26' E 014°33'1313.3
2016-Aug-18 11:34N 36°29' E 014°17'1413.7
2016-Aug-18 10:34N 36°33' E 014°01'1414.0
2016-Aug-18 09:33N 36°36' E 013°44'1413.8
2016-Aug-18 08:33N 36°40' E 013°28'1413.5
2016-Aug-18 07:33N 36°44' E 013°11'1313.2
2016-Aug-18 06:33N 36°47' E 012°55'1313.0
2016-Aug-18 05:33N 36°51' E 012°40'1313.1
2016-Aug-18 04:33N 36°54' E 012°24'1313.4
2016-Aug-18 03:33N 36°57' E 012°08'10611.7
2016-Aug-17 18:29N 37°17' E 009°57'0 0.0
2016-Aug-17 17:29N 37°17' E 009°57'0 0.0
2016-Aug-17 12:32N 37°17' E 009°57'0 0.0
2016-Aug-17 02:17N 37°17' E 009°57'0 0.0
2016-Aug-16 19:29N 37°17' E 009°57'0 0.0
2016-Aug-16 18:17N 37°17' E 009°57'0 0.0
2016-Aug-16 17:32N 37°17' E 009°57'0 0.0
2016-Aug-16 16:32N 37°17' E 009°57'0 0.0
2016-Aug-16 15:32N 37°17' E 009°57'0 0.0
2016-Aug-16 14:32N 37°17' E 009°57'0 0.0
2016-Aug-16 13:32N 37°17' E 009°57'0 0.0
2016-Aug-16 12:29N 37°17' E 009°57'0 0.0
2016-Aug-15 16:23N 37°17' E 009°57'0 0.0
2016-Aug-15 15:32N 37°17' E 009°57'0 0.0
2016-Aug-15 14:32N 37°17' E 009°57'0 0.0
2016-Aug-14 23:26N 37°17' E 009°57'0 0.0
2016-Aug-14 19:29N 37°17' E 009°57'0 0.0
2016-Aug-14 18:17N 37°17' E 009°57'0 0.3
2016-Aug-14 17:33N 37°17' E 009°57'3 2.4
2016-Aug-14 16:26N 37°16' E 009°53'0 0.0
2016-Aug-14 15:32N 37°16' E 009°53'  
Track history (hours):
 
Tides and Currents Weather Stations Pressure Air Temp Water Temp Dewpoint Dewpoint Depression Visibility Wind Speed Wind Dir Waves Ship Positions

Gandhi

Last reported at 2016-Aug-22 21:24 UTC. Time now 2016-Aug-25 00:57 UTC.
Position N 40°49' E 028°57'.

Length 176 m; draft 6 m.

Type: Tanker. MMSI: 636013645.

Date/timePositionNaut miles runAvg speedWind from/ knotsBaromVisibWave heightAir tempDewpointWater temp
2016-Aug-22 21:24N 40°49' E 028°57'9 9.7
2016-Aug-22 20:29N 40°40' E 028°58'7 1.0
2016-Aug-22 13:13N 40°47' E 028°58'1 0.8
2016-Aug-22 11:25N 40°48' E 028°57'1 0.7
2016-Aug-22 10:25N 40°49' E 028°57'1 0.7
2016-Aug-22 09:19N 40°50' E 028°57'1 1.6
2016-Aug-22 08:32N 40°50' E 028°55'  
2016-Aug-20 04:20N 37°51' E 024°30'1112.9
2016-Aug-20 03:30N 37°44' E 024°20'1313.2
2016-Aug-20 02:31N 37°35' E 024°09'1313.4
2016-Aug-20 01:33N 37°23' E 024°00'1313.0
2016-Aug-20 00:33N 37°12' E 023°52'1312.6
2016-Aug-19 23:33N 37°02' E 023°44'1312.8
2016-Aug-19 22:33N 36°51' E 023°35'1313.3
2016-Aug-19 21:33N 36°39' E 023°27'1312.9
2016-Aug-19 20:33N 36°28' E 023°18'39613.2
2016-Aug-18 14:33N 36°25' E 015°06'1312.9
2016-Aug-18 13:32N 36°25' E 014°49'1313.2
2016-Aug-18 12:34N 36°26' E 014°33'1313.3
2016-Aug-18 11:34N 36°29' E 014°17'1413.7
2016-Aug-18 10:34N 36°33' E 014°01'1414.0
2016-Aug-18 09:33N 36°36' E 013°44'1413.8
2016-Aug-18 08:33N 36°40' E 013°28'1413.5
2016-Aug-18 07:33N 36°44' E 013°11'1313.2
2016-Aug-18 06:33N 36°47' E 012°55'1313.0
2016-Aug-18 05:33N 36°51' E 012°40'1313.1
2016-Aug-18 04:33N 36°54' E 012°24'1313.4
2016-Aug-18 03:33N 36°57' E 012°08'10611.7
2016-Aug-17 18:29N 37°17' E 009°57'0 0.0
2016-Aug-17 17:29N 37°17' E 009°57'0 0.0
2016-Aug-17 12:32N 37°17' E 009°57'0 0.0
2016-Aug-17 02:17N 37°17' E 009°57'0 0.0
2016-Aug-16 19:29N 37°17' E 009°57'0 0.0
2016-Aug-16 18:17N 37°17' E 009°57'0 0.0
2016-Aug-16 17:32N 37°17' E 009°57'0 0.0
2016-Aug-16 16:32N 37°17' E 009°57'0 0.0
2016-Aug-16 15:32N 37°17' E 009°57'0 0.0
2016-Aug-16 14:32N 37°17' E 009°57'0 0.0
2016-Aug-16 13:32N 37°17' E 009°57'0 0.0
2016-Aug-16 12:29N 37°17' E 009°57'0 0.0
2016-Aug-15 16:23N 37°17' E 009°57'0 0.0
2016-Aug-15 15:32N 37°17' E 009°57'0 0.0
2016-Aug-15 14:32N 37°17' E 009°57'0 0.0
2016-Aug-14 23:26N 37°17' E 009°57'0 0.0
2016-Aug-14 19:29N 37°17' E 009°57'0 0.0
2016-Aug-14 18:17N 37°17' E 009°57'0 0.3
2016-Aug-14 17:33N 37°17' E 009°57'3 2.4
2016-Aug-14 16:26N 37°16' E 009°53'0 0.0
2016-Aug-14 15:32N 37°16' E 009°53'  

Dump ship's entire track history